sensor_id;sensor_type;location;lat;lon;timestamp;pressure;altitude;pressure_sealevel;temperature;humidity
69060;BME280;56135;37.534;-122.308;2023-04-25T00:00:32;101358.69;;;16.72;65.85
69060;BME280;56135;37.534;-122.308;2023-04-25T00:02:58;101353.41;;;16.70;66.58
69060;BME280;56135;37.534;-122.308;2023-04-25T00:05:27;101356.06;;;16.70;66.94
69060;BME280;56135;37.534;-122.308;2023-04-25T00:07:53;101366.50;;;16.78;67.76
69060;BME280;56135;37.534;-122.308;2023-04-25T00:10:20;101368.28;;;16.77;64.38
69060;BME280;56135;37.534;-122.308;2023-04-25T00:12:46;101363.66;;;16.84;65.55
69060;BME280;56135;37.534;-122.308;2023-04-25T00:15:13;101354.72;;;16.55;65.77
69060;BME280;56135;37.534;-122.308;2023-04-25T00:17:39;101360.03;;;16.55;68.65
69060;BME280;56135;37.534;-122.308;2023-04-25T00:20:06;101352.75;;;16.60;69.79
69060;BME280;56135;37.534;-122.308;2023-04-25T00:22:35;101354.56;;;16.60;71.13
69060;BME280;56135;37.534;-122.308;2023-04-25T00:25:06;101365.97;;;16.65;81.44
69060;BME280;56135;37.534;-122.308;2023-04-25T00:27:33;101362.06;;;16.45;94.82
69060;BME280;56135;37.534;-122.308;2023-04-25T00:29:59;101364.31;;;16.28;99.17
69060;BME280;56135;37.534;-122.308;2023-04-25T00:32:25;101361.94;;;16.17;100.00
69060;BME280;56135;37.534;-122.308;2023-04-25T00:34:52;101366.19;;;16.24;100.00
69060;BME280;56135;37.534;-122.308;2023-04-25T00:37:18;101355.78;;;16.15;100.00
69060;BME280;56135;37.534;-122.308;2023-04-25T00:39:45;101356.78;;;16.11;100.00
69060;BME280;56135;37.534;-122.308;2023-04-25T00:42:12;101356.63;;;16.17;100.00
69060;BME280;56135;37.534;-122.308;2023-04-25T00:44:38;101359.28;;;16.17;99.26
69060;BME280;56135;37.534;-122.308;2023-04-25T00:47:06;101351.28;;;16.17;100.00
69060;BME280;56135;37.534;-122.308;2023-04-25T00:49:32;101351.28;;;16.17;95.83
69060;BME280;56135;37.534;-122.308;2023-04-25T00:51:59;101348.72;;;16.12;100.00
69060;BME280;56135;37.534;-122.308;2023-04-25T00:54:25;101362.56;;;15.92;100.00
69060;BME280;56135;37.534;-122.308;2023-04-25T00:56:52;101354.00;;;15.81;100.00
69060;BME280;56135;37.534;-122.308;2023-04-25T00:59:19;101354.91;;;15.77;100.00
69060;BME280;56135;37.534;-122.308;2023-04-25T01:01:46;101352.34;;;15.74;100.00
69060;BME280;56135;37.534;-122.308;2023-04-25T01:04:13;101354.56;;;15.56;100.00
69060;BME280;56135;37.534;-122.308;2023-04-25T01:06:40;101350.47;;;15.41;100.00
69060;BME280;56135;37.534;-122.308;2023-04-25T01:09:07;101351.03;;;15.16;100.00
69060;BME280;56135;37.534;-122.308;2023-04-25T01:11:33;101352.59;;;15.25;100.00
69060;BME280;56135;37.534;-122.308;2023-04-25T01:14:00;101360.06;;;15.09;100.00
69060;BME280;56135;37.534;-122.308;2023-04-25T01:16:27;101371.97;;;14.91;100.00
69060;BME280;56135;37.534;-122.308;2023-04-25T01:18:53;101373.94;;;14.81;100.00
69060;BME280;56135;37.534;-122.308;2023-04-25T01:21:20;101362.78;;;14.61;100.00
69060;BME280;56135;37.534;-122.308;2023-04-25T01:23:47;101360.44;;;14.44;100.00
69060;BME280;56135;37.534;-122.308;2023-04-25T01:26:13;101361.41;;;14.40;100.00
69060;BME280;56135;37.534;-122.308;2023-04-25T01:28:39;101364.16;;;14.35;100.00
69060;BME280;56135;37.534;-122.308;2023-04-25T01:31:08;101359.00;;;14.27;100.00
69060;BME280;56135;37.534;-122.308;2023-04-25T01:33:35;101372.66;;;14.07;100.00
69060;BME280;56135;37.534;-122.308;2023-04-25T01:36:01;101372.91;;;13.92;100.00
69060;BME280;56135;37.534;-122.308;2023-04-25T01:38:28;101357.81;;;13.92;100.00
69060;BME280;56135;37.534;-122.308;2023-04-25T01:40:54;101358.97;;;13.77;100.00
69060;BME280;56135;37.534;-122.308;2023-04-25T01:43:21;101366.06;;;13.75;100.00
69060;BME280;56135;37.534;-122.308;2023-04-25T01:45:48;101365.44;;;13.61;100.00
69060;BME280;56135;37.534;-122.308;2023-04-25T01:48:15;101363.59;;;13.64;100.00
69060;BME280;56135;37.534;-122.308;2023-04-25T01:50:43;101367.19;;;13.60;100.00
69060;BME280;56135;37.534;-122.308;2023-04-25T01:53:10;101373.53;;;13.50;100.00
69060;BME280;56135;37.534;-122.308;2023-04-25T01:55:38;101367.69;;;13.23;100.00
69060;BME280;56135;37.534;-122.308;2023-04-25T01:58:05;101365.25;;;13.09;100.00
69060;BME280;56135;37.534;-122.308;2023-04-25T02:00:36;101366.22;;;13.00;100.00
69060;BME280;56135;37.534;-122.308;2023-04-25T02:03:07;101358.38;;;12.91;100.00
69060;BME280;56135;37.534;-122.308;2023-04-25T02:05:40;101362.91;;;12.84;100.00
69060;BME280;56135;37.534;-122.308;2023-04-25T02:08:07;101367.34;;;12.81;100.00
69060;BME280;56135;37.534;-122.308;2023-04-25T02:10:34;101366.50;;;12.79;100.00
69060;BME280;56135;37.534;-122.308;2023-04-25T02:13:01;101358.75;;;12.62;100.00
69060;BME280;56135;37.534;-122.308;2023-04-25T02:15:27;101359.59;;;12.65;100.00
69060;BME280;56135;37.534;-122.308;2023-04-25T02:17:53;101360.53;;;12.60;100.00
69060;BME280;56135;37.534;-122.308;2023-04-25T02:20:24;101360.63;;;12.52;100.00
69060;BME280;56135;37.534;-122.308;2023-04-25T02:22:50;101363.34;;;12.46;100.00
69060;BME280;56135;37.534;-122.308;2023-04-25T02:25:18;101357.28;;;12.33;100.00
69060;BME280;56135;37.534;-122.308;2023-04-25T02:27:46;101357.44;;;12.16;100.00
69060;BME280;56135;37.534;-122.308;2023-04-25T02:30:13;101348.75;;;12.01;100.00
69060;BME280;56135;37.534;-122.308;2023-04-25T02:32:40;101345.28;;;11.95;100.00
69060;BME280;56135;37.534;-122.308;2023-04-25T02:35:07;101350.63;;;11.87;100.00
69060;BME280;56135;37.534;-122.308;2023-04-25T02:37:33;101354.22;;;11.78;100.00
69060;BME280;56135;37.534;-122.308;2023-04-25T02:40:01;101364.03;;;11.68;100.00
69060;BME280;56135;37.534;-122.308;2023-04-25T02:42:27;101362.34;;;11.54;100.00
69060;BME280;56135;37.534;-122.308;2023-04-25T02:44:53;101364.13;;;11.53;100.00
69060;BME280;56135;37.534;-122.308;2023-04-25T02:47:20;101362.41;;;11.47;100.00
69060;BME280;56135;37.534;-122.308;2023-04-25T02:49:46;101359.78;;;11.41;100.00
69060;BME280;56135;37.534;-122.308;2023-04-25T02:52:12;101366.91;;;11.33;100.00
69060;BME280;56135;37.534;-122.308;2023-04-25T02:54:40;101371.31;;;11.29;100.00
69060;BME280;56135;37.534;-122.308;2023-04-25T02:57:07;101369.59;;;11.25;100.00
69060;BME280;56135;37.534;-122.308;2023-04-25T02:59:33;101374.91;;;11.16;100.00
69060;BME280;56135;37.534;-122.308;2023-04-25T03:02:00;101376.72;;;11.08;100.00
69060;BME280;56135;37.534;-122.308;2023-04-25T03:04:26;101378.50;;;11.02;100.00
69060;BME280;56135;37.534;-122.308;2023-04-25T03:06:53;101377.63;;;10.99;100.00
69060;BME280;56135;37.534;-122.308;2023-04-25T03:09:19;101373.28;;;10.90;100.00
69060;BME280;56135;37.534;-122.308;2023-04-25T03:11:45;101370.69;;;10.78;100.00
69060;BME280;56135;37.534;-122.308;2023-04-25T03:14:12;101369.81;;;10.73;100.00
69060;BME280;56135;37.534;-122.308;2023-04-25T03:16:39;101379.50;;;10.67;100.00
69060;BME280;56135;37.534;-122.308;2023-04-25T03:19:06;101370.75;;;10.62;100.00
69060;BME280;56135;37.534;-122.308;2023-04-25T03:21:33;101380.44;;;10.52;100.00
69060;BME280;56135;37.534;-122.308;2023-04-25T03:24:04;101393.66;;;10.51;100.00
69060;BME280;56135;37.534;-122.308;2023-04-25T03:26:30;101399.84;;;10.47;100.00
69060;BME280;56135;37.534;-122.308;2023-04-25T03:28:59;101401.63;;;10.39;100.00
69060;BME280;56135;37.534;-122.308;2023-04-25T03:31:25;101405.13;;;10.34;100.00
69060;BME280;56135;37.534;-122.308;2023-04-25T03:33:51;101403.31;;;10.30;100.00
69060;BME280;56135;37.534;-122.308;2023-04-25T03:36:18;101398.94;;;10.26;100.00
69060;BME280;56135;37.534;-122.308;2023-04-25T03:38:44;101394.53;;;10.21;100.00
69060;BME280;56135;37.534;-122.308;2023-04-25T03:41:10;101404.22;;;10.23;100.00
69060;BME280;56135;37.534;-122.308;2023-04-25T03:43:39;101404.25;;;10.18;100.00
69060;BME280;56135;37.534;-122.308;2023-04-25T03:46:05;101414.81;;;10.12;100.00
69060;BME280;56135;37.534;-122.308;2023-04-25T03:48:31;101420.09;;;10.11;100.00
69060;BME280;56135;37.534;-122.308;2023-04-25T03:50:58;101417.44;;;10.05;100.00
69060;BME280;56135;37.534;-122.308;2023-04-25T03:53:24;101419.19;;;10.02;100.00
69060;BME280;56135;37.534;-122.308;2023-04-25T03:55:54;101421.84;;;9.96;100.00
69060;BME280;56135;37.534;-122.308;2023-04-25T03:58:20;101420.94;;;9.94;100.00
69060;BME280;56135;37.534;-122.308;2023-04-25T04:00:48;101426.22;;;9.91;100.00
69060;BME280;56135;37.534;-122.308;2023-04-25T04:03:18;101422.69;;;9.89;100.00
69060;BME280;56135;37.534;-122.308;2023-04-25T04:05:44;101425.34;;;9.89;100.00
69060;BME280;56135;37.534;-122.308;2023-04-25T04:08:13;101422.72;;;9.83;100.00
69060;BME280;56135;37.534;-122.308;2023-04-25T04:10:41;101430.59;;;9.80;100.00
69060;BME280;56135;37.534;-122.308;2023-04-25T04:13:08;101441.16;;;9.77;100.00
69060;BME280;56135;37.534;-122.308;2023-04-25T04:15:34;101444.66;;;9.77;100.00
69060;BME280;56135;37.534;-122.308;2023-04-25T04:18:00;101438.50;;;9.71;100.00
69060;BME280;56135;37.534;-122.308;2023-04-25T04:20:29;101435.00;;;9.72;100.00
69060;BME280;56135;37.534;-122.308;2023-04-25T04:22:56;101442.00;;;9.66;100.00
69060;BME280;56135;37.534;-122.308;2023-04-25T04:25:28;101438.50;;;9.63;100.00
69060;BME280;56135;37.534;-122.308;2023-04-25T04:27:55;101429.69;;;9.62;100.00
69060;BME280;56135;37.534;-122.308;2023-04-25T04:30:23;101449.03;;;9.60;100.00
69060;BME280;56135;37.534;-122.308;2023-04-25T04:32:51;101444.63;;;9.56;100.00
69060;BME280;56135;37.534;-122.308;2023-04-25T04:35:17;101452.53;;;9.57;100.00
69060;BME280;56135;37.534;-122.308;2023-04-25T04:37:43;101443.75;;;9.55;100.00
69060;BME280;56135;37.534;-122.308;2023-04-25T04:40:11;101444.63;;;9.54;100.00
69060;BME280;56135;37.534;-122.308;2023-04-25T04:42:37;101447.28;;;9.51;100.00
69060;BME280;56135;37.534;-122.308;2023-04-25T04:45:07;101450.78;;;9.51;100.00
69060;BME280;56135;37.534;-122.308;2023-04-25T04:47:34;101434.09;;;9.52;100.00
69060;BME280;56135;37.534;-122.308;2023-04-25T04:50:03;101444.59;;;9.43;100.00
69060;BME280;56135;37.534;-122.308;2023-04-25T04:52:38;101449.00;;;9.46;100.00
69060;BME280;56135;37.534;-122.308;2023-04-25T04:55:05;101445.47;;;9.44;100.00
69060;BME280;56135;37.534;-122.308;2023-04-25T04:57:35;101446.34;;;9.37;100.00
69060;BME280;56135;37.534;-122.308;2023-04-25T05:00:01;101452.50;;;9.39;100.00
69060;BME280;56135;37.534;-122.308;2023-04-25T05:02:30;101462.13;;;9.33;100.00
69060;BME280;56135;37.534;-122.308;2023-04-25T05:04:56;101463.00;;;9.29;100.00
69060;BME280;56135;37.534;-122.308;2023-04-25T05:07:23;101456.84;;;9.27;100.00
69060;BME280;56135;37.534;-122.308;2023-04-25T05:09:49;101459.50;;;9.29;100.00
69060;BME280;56135;37.534;-122.308;2023-04-25T05:12:18;101466.50;;;9.25;100.00
69060;BME280;56135;37.534;-122.308;2023-04-25T05:14:44;101452.44;;;9.25;100.00
69060;BME280;56135;37.534;-122.308;2023-04-25T05:17:11;101457.69;;;9.17;100.00
69060;BME280;56135;37.534;-122.308;2023-04-25T05:19:39;101455.00;;;9.12;100.00
69060;BME280;56135;37.534;-122.308;2023-04-25T05:22:28;101449.78;;;9.14;100.00
69060;BME280;56135;37.534;-122.308;2023-04-25T05:24:57;101451.50;;;9.13;100.00
69060;BME280;56135;37.534;-122.308;2023-04-25T05:27:26;101455.91;;;9.14;100.00
69060;BME280;56135;37.534;-122.308;2023-04-25T05:29:52;101455.06;;;9.15;100.00
69060;BME280;56135;37.534;-122.308;2023-04-25T05:32:18;101460.31;;;9.17;100.00
69060;BME280;56135;37.534;-122.308;2023-04-25T05:34:44;101459.41;;;9.15;100.00
69060;BME280;56135;37.534;-122.308;2023-04-25T05:37:11;101468.19;;;9.11;100.00
69060;BME280;56135;37.534;-122.308;2023-04-25T05:39:37;101462.06;;;9.10;100.00
69060;BME280;56135;37.534;-122.308;2023-04-25T05:42:03;101455.00;;;9.06;100.00
69060;BME280;56135;37.534;-122.308;2023-04-25T05:44:30;101455.88;;;9.04;100.00
69060;BME280;56135;37.534;-122.308;2023-04-25T05:46:57;101460.25;;;9.00;100.00
69060;BME280;56135;37.534;-122.308;2023-04-25T05:49:23;101455.84;;;8.99;100.00
69060;BME280;56135;37.534;-122.308;2023-04-25T05:51:49;101459.31;;;8.95;100.00
69060;BME280;56135;37.534;-122.308;2023-04-25T05:54:15;101447.91;;;8.94;100.00
69060;BME280;56135;37.534;-122.308;2023-04-25T05:56:41;101448.78;;;8.89;100.00
69060;BME280;56135;37.534;-122.308;2023-04-25T05:59:08;101455.78;;;8.87;100.00
69060;BME280;56135;37.534;-122.308;2023-04-25T06:01:34;101453.16;;;8.90;100.00
69060;BME280;56135;37.534;-122.308;2023-04-25T06:04:00;101449.66;;;8.89;100.00
69060;BME280;56135;37.534;-122.308;2023-04-25T06:06:27;101453.16;;;8.88;100.00
69060;BME280;56135;37.534;-122.308;2023-04-25T06:08:53;101454.00;;;8.87;100.00
69060;BME280;56135;37.534;-122.308;2023-04-25T06:11:21;101446.16;;;8.90;100.00
69060;BME280;56135;37.534;-122.308;2023-04-25T06:13:47;101440.00;;;8.91;100.00
69060;BME280;56135;37.534;-122.308;2023-04-25T06:16:13;101426.84;;;8.91;100.00
69060;BME280;56135;37.534;-122.308;2023-04-25T06:18:40;101439.16;;;8.95;100.00
69060;BME280;56135;37.534;-122.308;2023-04-25T06:21:06;101433.84;;;8.92;100.00
69060;BME280;56135;37.534;-122.308;2023-04-25T06:23:32;101451.41;;;8.92;100.00
69060;BME280;56135;37.534;-122.308;2023-04-25T06:25:58;101444.38;;;8.88;100.00
69060;BME280;56135;37.534;-122.308;2023-04-25T06:28:25;101441.72;;;8.86;100.00
69060;BME280;56135;37.534;-122.308;2023-04-25T06:30:51;101443.47;;;8.84;100.00
69060;BME280;56135;37.534;-122.308;2023-04-25T06:33:17;101449.59;;;8.81;100.00
69060;BME280;56135;37.534;-122.308;2023-04-25T06:35:44;101446.09;;;8.81;100.00
69060;BME280;56135;37.534;-122.308;2023-04-25T06:38:10;101450.47;;;8.79;100.00
69060;BME280;56135;37.534;-122.308;2023-04-25T06:40:36;101454.84;;;8.78;100.00
69060;BME280;56135;37.534;-122.308;2023-04-25T06:43:03;101459.22;;;8.76;100.00
69060;BME280;56135;37.534;-122.308;2023-04-25T06:45:29;101460.97;;;8.74;100.00
69060;BME280;56135;37.534;-122.308;2023-04-25T06:47:55;101463.56;;;8.71;100.00
69060;BME280;56135;37.534;-122.308;2023-04-25T06:50:21;101450.41;;;8.68;100.00
69060;BME280;56135;37.534;-122.308;2023-04-25T06:52:47;101448.63;;;8.65;100.00
69060;BME280;56135;37.534;-122.308;2023-04-25T06:55:14;101452.13;;;8.64;100.00
69060;BME280;56135;37.534;-122.308;2023-04-25T06:57:40;101458.28;;;8.65;100.00
69060;BME280;56135;37.534;-122.308;2023-04-25T07:00:07;101458.28;;;8.65;100.00
69060;BME280;56135;37.534;-122.308;2023-04-25T07:02:36;101460.91;;;8.63;100.00
69060;BME280;56135;37.534;-122.308;2023-04-25T07:05:03;101451.25;;;8.62;100.00
69060;BME280;56135;37.534;-122.308;2023-04-25T07:07:33;101452.13;;;8.61;100.00
69060;BME280;56135;37.534;-122.308;2023-04-25T07:09:59;101459.16;;;8.62;100.00
69060;BME280;56135;37.534;-122.308;2023-04-25T07:12:25;101456.47;;;8.59;100.00
69060;BME280;56135;37.534;-122.308;2023-04-25T07:14:51;101448.56;;;8.53;100.00
69060;BME280;56135;37.534;-122.308;2023-04-25T07:17:18;101438.03;;;8.55;100.00
69060;BME280;56135;37.534;-122.308;2023-04-25T07:19:44;101434.53;;;8.54;100.00
69060;BME280;56135;37.534;-122.308;2023-04-25T07:22:10;101445.00;;;8.51;100.00
69060;BME280;56135;37.534;-122.308;2023-04-25T07:24:36;101443.19;;;8.44;100.00
69060;BME280;56135;37.534;-122.308;2023-04-25T07:27:03;101435.25;;;8.41;100.00
69060;BME280;56135;37.534;-122.308;2023-04-25T07:29:29;101435.25;;;8.39;100.00
69060;BME280;56135;37.534;-122.308;2023-04-25T07:31:56;101446.66;;;8.40;100.00
69060;BME280;56135;37.534;-122.308;2023-04-25T07:34:22;101437.00;;;8.39;100.00
69060;BME280;56135;37.534;-122.308;2023-04-25T07:36:49;101447.53;;;8.35;100.00
69060;BME280;56135;37.534;-122.308;2023-04-25T07:39:15;101457.16;;;8.35;100.00
69060;BME280;56135;37.534;-122.308;2023-04-25T07:41:41;101453.66;;;8.34;100.00
69060;BME280;56135;37.534;-122.308;2023-04-25T07:44:07;101440.50;;;8.36;100.00
69060;BME280;56135;37.534;-122.308;2023-04-25T07:46:33;101447.47;;;8.34;100.00
69060;BME280;56135;37.534;-122.308;2023-04-25T07:49:00;101450.16;;;8.37;100.00
69060;BME280;56135;37.534;-122.308;2023-04-25T07:51:26;101444.91;;;8.39;100.00
69060;BME280;56135;37.534;-122.308;2023-04-25T07:53:53;101451.03;;;8.38;100.00
69060;BME280;56135;37.534;-122.308;2023-04-25T07:56:19;101458.00;;;8.34;100.00
69060;BME280;56135;37.534;-122.308;2023-04-25T07:58:46;101464.19;;;8.34;100.00
69060;BME280;56135;37.534;-122.308;2023-04-25T08:01:12;101450.16;;;8.35;100.00
69060;BME280;56135;37.534;-122.308;2023-04-25T08:03:38;101441.34;;;8.30;100.00
69060;BME280;56135;37.534;-122.308;2023-04-25T08:06:04;101453.59;;;8.30;100.00
69060;BME280;56135;37.534;-122.308;2023-04-25T08:08:31;101450.09;;;8.29;100.00
69060;BME280;56135;37.534;-122.308;2023-04-25T08:10:57;101450.97;;;8.30;100.00
69060;BME280;56135;37.534;-122.308;2023-04-25T08:13:24;101450.97;;;8.28;100.00
69060;BME280;56135;37.534;-122.308;2023-04-25T08:15:50;101447.47;;;8.28;100.00
69060;BME280;56135;37.534;-122.308;2023-04-25T08:18:16;101449.22;;;8.30;100.00
69060;BME280;56135;37.534;-122.308;2023-04-25T08:20:42;101451.81;;;8.29;100.00
69060;BME280;56135;37.534;-122.308;2023-04-25T08:23:09;101450.09;;;8.28;100.00
69060;BME280;56135;37.534;-122.308;2023-04-25T08:25:36;101444.81;;;8.28;100.00
69060;BME280;56135;37.534;-122.308;2023-04-25T08:28:02;101442.19;;;8.28;100.00
69060;BME280;56135;37.534;-122.308;2023-04-25T08:30:29;101445.69;;;8.28;100.00
69060;BME280;56135;37.534;-122.308;2023-04-25T08:32:55;101436.00;;;8.24;100.00
69060;BME280;56135;37.534;-122.308;2023-04-25T08:35:22;101436.91;;;8.26;100.00
69060;BME280;56135;37.534;-122.308;2023-04-25T08:37:48;101436.84;;;8.18;100.00
69060;BME280;56135;37.534;-122.308;2023-04-25T08:40:15;101441.19;;;8.12;100.00
69060;BME280;56135;37.534;-122.308;2023-04-25T08:42:42;101442.06;;;8.12;100.00
69060;BME280;56135;37.534;-122.308;2023-04-25T08:45:09;101443.75;;;8.02;100.00
69060;BME280;56135;37.534;-122.308;2023-04-25T08:47:38;101441.97;;;8.01;100.00
69060;BME280;56135;37.534;-122.308;2023-04-25T08:50:04;101442.84;;;8.00;100.00
69060;BME280;56135;37.534;-122.308;2023-04-25T08:52:44;101440.19;;;7.99;100.00
69060;BME280;56135;37.534;-122.308;2023-04-25T08:55:14;101434.94;;;8.00;100.00
69060;BME280;56135;37.534;-122.308;2023-04-25T08:57:42;101430.50;;;7.93;100.00
69060;BME280;56135;37.534;-122.308;2023-04-25T09:00:10;101433.09;;;7.90;100.00
69060;BME280;56135;37.534;-122.308;2023-04-25T09:02:39;101426.09;;;7.89;100.00
69060;BME280;56135;37.534;-122.308;2023-04-25T09:05:06;101419.94;;;7.90;100.00
69060;BME280;56135;37.534;-122.308;2023-04-25T09:07:35;101416.41;;;7.88;100.00
69060;BME280;56135;37.534;-122.308;2023-04-25T09:10:01;101412.00;;;7.85;100.00
69060;BME280;56135;37.534;-122.308;2023-04-25T09:12:29;101405.84;;;7.82;100.00
69060;BME280;56135;37.534;-122.308;2023-04-25T09:15:03;101402.34;;;7.83;100.00
69060;BME280;56135;37.534;-122.308;2023-04-25T09:17:30;101397.09;;;7.84;100.00
69060;BME280;56135;37.534;-122.308;2023-04-25T09:20:08;101394.44;;;7.83;100.00
69060;BME280;56135;37.534;-122.308;2023-04-25T09:22:36;101397.06;;;7.81;100.00
69060;BME280;56135;37.534;-122.308;2023-04-25T09:25:10;101396.22;;;7.82;100.00
69060;BME280;56135;37.534;-122.308;2023-04-25T09:27:49;101390.91;;;7.81;100.00
69060;BME280;56135;37.534;-122.308;2023-04-25T09:30:17;101392.66;;;7.77;100.00
69060;BME280;56135;37.534;-122.308;2023-04-25T09:32:44;101400.53;;;7.77;100.00
69060;BME280;56135;37.534;-122.308;2023-04-25T09:35:11;101385.59;;;7.73;100.00
69060;BME280;56135;37.534;-122.308;2023-04-25T09:37:49;101381.22;;;7.74;100.00
69060;BME280;56135;37.534;-122.308;2023-04-25T09:40:18;101384.72;;;7.73;100.00
69060;BME280;56135;37.534;-122.308;2023-04-25T09:42:44;101392.59;;;7.73;100.00
69060;BME280;56135;37.534;-122.308;2023-04-25T09:45:12;101386.47;;;7.71;100.00
69060;BME280;56135;37.534;-122.308;2023-04-25T09:47:40;101382.06;;;7.71;100.00
69060;BME280;56135;37.534;-122.308;2023-04-25T09:50:16;101380.34;;;7.75;100.00
69060;BME280;56135;37.534;-122.308;2023-04-25T09:52:44;101376.75;;;7.65;100.00
69060;BME280;56135;37.534;-122.308;2023-04-25T09:55:11;101374.09;;;7.63;100.00
69060;BME280;56135;37.534;-122.308;2023-04-25T09:57:37;101373.19;;;7.60;100.00
69060;BME280;56135;37.534;-122.308;2023-04-25T10:00:07;101366.22;;;7.65;100.00
69060;BME280;56135;37.534;-122.308;2023-04-25T10:02:38;101379.38;;;7.66;100.00
69060;BME280;56135;37.534;-122.308;2023-04-25T10:05:08;101372.41;;;7.72;100.00
69060;BME280;56135;37.534;-122.308;2023-04-25T10:07:36;101382.94;;;7.72;100.00
69060;BME280;56135;37.534;-122.308;2023-04-25T10:10:04;101370.69;;;7.72;100.00
69060;BME280;56135;37.534;-122.308;2023-04-25T10:12:33;101358.41;;;7.71;100.00
69060;BME280;56135;37.534;-122.308;2023-04-25T10:15:00;101363.56;;;7.60;100.00
69060;BME280;56135;37.534;-122.308;2023-04-25T10:17:27;101359.16;;;7.61;100.00
69060;BME280;56135;37.534;-122.308;2023-04-25T10:19:57;101360.00;;;7.55;100.00
69060;BME280;56135;37.534;-122.308;2023-04-25T10:22:38;101357.38;;;7.55;100.00
69060;BME280;56135;37.534;-122.308;2023-04-25T10:25:06;101348.53;;;7.45;100.00
69060;BME280;56135;37.534;-122.308;2023-04-25T10:27:34;101356.38;;;7.44;100.00
69060;BME280;56135;37.534;-122.308;2023-04-25T10:30:04;101350.25;;;7.42;100.00
69060;BME280;56135;37.534;-122.308;2023-04-25T10:32:32;101346.75;;;7.43;100.00
69060;BME280;56135;37.534;-122.308;2023-04-25T10:35:19;101354.63;;;7.43;100.00
69060;BME280;56135;37.534;-122.308;2023-04-25T10:38:10;101350.22;;;7.40;100.00
69060;BME280;56135;37.534;-122.308;2023-04-25T10:40:38;101357.28;;;7.44;100.00
69060;BME280;56135;37.534;-122.308;2023-04-25T10:46:12;101341.50;;;7.43;100.00
69060;BME280;56135;37.534;-122.308;2023-04-25T10:48:53;101341.44;;;7.40;100.00
69060;BME280;56135;37.534;-122.308;2023-04-25T10:51:26;101341.44;;;7.40;100.00
69060;BME280;56135;37.534;-122.308;2023-04-25T10:54:01;101347.56;;;7.39;100.00
69060;BME280;56135;37.534;-122.308;2023-04-25T10:56:32;101349.31;;;7.37;100.00
69060;BME280;56135;37.534;-122.308;2023-04-25T10:59:16;101344.91;;;7.35;100.00
69060;BME280;56135;37.534;-122.308;2023-04-25T11:01:44;101353.66;;;7.34;100.00
69060;BME280;56135;37.534;-122.308;2023-04-25T11:04:32;101349.22;;;7.30;100.00
69060;BME280;56135;37.534;-122.308;2023-04-25T11:09:33;101360.66;;;7.32;100.00
69060;BME280;56135;37.534;-122.308;2023-04-25T11:12:00;101362.44;;;7.35;100.00
69060;BME280;56135;37.534;-122.308;2023-04-25T11:14:27;101360.75;;;7.40;100.00
69060;BME280;56135;37.534;-122.308;2023-04-25T11:16:56;101364.13;;;7.28;100.00
69060;BME280;56135;37.534;-122.308;2023-04-25T11:19:23;101363.19;;;7.23;100.00
69060;BME280;56135;37.534;-122.308;2023-04-25T11:21:50;101364.03;;;7.19;100.00
69060;BME280;56135;37.534;-122.308;2023-04-25T11:24:17;101360.47;;;7.14;100.00
69060;BME280;56135;37.534;-122.308;2023-04-25T11:26:43;101363.97;;;7.16;100.00
69060;BME280;56135;37.534;-122.308;2023-04-25T11:29:13;101363.09;;;7.14;100.00
69060;BME280;56135;37.534;-122.308;2023-04-25T11:31:43;101360.41;;;7.11;100.00
69060;BME280;56135;37.534;-122.308;2023-04-25T11:34:11;101366.50;;;7.07;100.00
69060;BME280;56135;37.534;-122.308;2023-04-25T11:36:38;101351.63;;;7.06;100.00
69060;BME280;56135;37.534;-122.308;2023-04-25T11:39:05;101349.03;;;7.10;100.00
69060;BME280;56135;37.534;-122.308;2023-04-25T11:41:31;101344.63;;;7.09;100.00
69060;BME280;56135;37.534;-122.308;2023-04-25T11:43:57;101347.25;;;7.08;100.00
69060;BME280;56135;37.534;-122.308;2023-04-25T11:46:24;101348.09;;;7.05;100.00
69060;BME280;56135;37.534;-122.308;2023-04-25T11:48:51;101355.94;;;7.00;100.00
69060;BME280;56135;37.534;-122.308;2023-04-25T11:51:17;101359.44;;;7.03;100.00
69060;BME280;56135;37.534;-122.308;2023-04-25T11:53:44;101350.66;;;6.99;100.00
69060;BME280;56135;37.534;-122.308;2023-04-25T11:56:11;101350.63;;;6.97;100.00
69060;BME280;56135;37.534;-122.308;2023-04-25T11:58:57;101350.59;;;6.94;100.00
69060;BME280;56135;37.534;-122.308;2023-04-25T12:01:34;101343.53;;;6.89;100.00
69060;BME280;56135;37.534;-122.308;2023-04-25T12:04:21;101340.84;;;6.85;100.00
69060;BME280;56135;37.534;-122.308;2023-04-25T12:06:52;101343.44;;;6.82;100.00
69060;BME280;56135;37.534;-122.308;2023-04-25T12:09:30;101343.41;;;6.78;100.00
69060;BME280;56135;37.534;-122.308;2023-04-25T12:11:59;101345.97;;;6.73;100.00
69060;BME280;56135;37.534;-122.308;2023-04-25T12:14:35;101336.31;;;6.71;100.00
69060;BME280;56135;37.534;-122.308;2023-04-25T12:17:03;101334.50;;;6.66;100.00
69060;BME280;56135;37.534;-122.308;2023-04-25T12:19:35;101336.28;;;6.69;100.00
69060;BME280;56135;37.534;-122.308;2023-04-25T12:22:03;101334.47;;;6.65;100.00
69060;BME280;56135;37.534;-122.308;2023-04-25T12:24:29;101345.00;;;6.66;100.00
69060;BME280;56135;37.534;-122.308;2023-04-25T12:27:01;101342.34;;;6.62;100.00